Terminal Aerodrome Forecast
Issued by NWS Sterling, VA

Home | Current Version | Previous Version | Text Only | Print | Product List | Glossary On
Versions: 1 2 3 4 5 6 7 8 9 10 11 12 13 14 15 16 17 18 19 20 21 22 23
029
FTUS41 KLWX 190528
TAFBWI
TAF
KBWI 190528Z 1906/2012 21016G28KT P6SM -SHRA OVC070
     FM190900 23019G36KT P6SM -SHRA OVC030
     FM191200 29024G42KT P6SM SCT040
     FM191900 29020G34KT P6SM SCT040
     FM200000 29015G26KT P6SM SCT040=

USA.gov is the U.S. government's official web portal to all federal, state and local government web resources and services.